»·PEaware :: N737AZ L52-L88

N737AZ :: L52-L88

FLIGHT INFORMATION

Flight Status: Arrived
Operator: Privately registered:
United States
More flights under this callsign
Pilot: Ronald A. (20436)
Aircraft: CESSNA 172 SKYHAWK
(C172)
More flights by this aircraft type
Origin: L52 Oceano Co
United States
Destination: L88 New Cuyama
United States
More flights between these airports :: More routes between these airports
Route: DIRECT
File this flight plan on PilotEdge
Remarks:
Altitude:
(Current/Filed)
7,500ft
Speed:
(Current/Filed)
110kts
Departed: 22-Sep-18 01:49 PM
Arrived: 22-Sep-18 02:22 PM
Distance/Time
Traveled:
47nm/0:33
Distance/Time
To Go:
Arrived

Flight Plot

Page will automatically refresh every two minutes.


Map Options




Map Legend


Flown Route
Filed Route
Departure Airport
Arrival Airport
Navaid (VOR, NDB)
Fix

Horizontal Profiles

Position Reports

Time Latitude Longitude Heading Altitude Ground
Speed
22-Sep-18 13:36 35.102275 -120.622530 210 18ft 0kts
22-Sep-18 13:37 35.102275 -120.622530 210 18ft 0kts
22-Sep-18 13:38 35.102275 -120.622530 210 18ft 0kts
22-Sep-18 13:39 35.102275 -120.622530 210 18ft 0kts
22-Sep-18 13:40 35.102275 -120.622530 210 18ft 0kts
22-Sep-18 13:41 35.102275 -120.622530 210 18ft 0kts
22-Sep-18 13:42 35.102275 -120.622530 210 18ft 0kts
22-Sep-18 13:43 35.102055 -120.622276 118 18ft 6kts
22-Sep-18 13:44 35.101159 -120.622491 129 18ft 4kts
22-Sep-18 13:45 35.099745 -120.619832 120 18ft 0kts
22-Sep-18 13:46 35.099502 -120.619522 119 18ft 3kts
22-Sep-18 13:47 35.099502 -120.619487 76 18ft 0kts
22-Sep-18 13:48 35.099502 -120.619487 76 18ft 0kts
22-Sep-18 13:49 35.099502 -120.619484 76 18ft 0kts
22-Sep-18 13:50 35.099922 -120.619298 322 18ft 7kts
22-Sep-18 13:51 35.103526 -120.625956 302 137ft 79kts
22-Sep-18 13:52 35.109603 -120.651820 228 1138ft 89kts
22-Sep-18 13:53 35.096130 -120.639492 94 1935ft 81kts
22-Sep-18 13:54 35.094367 -120.610383 96 2917ft 87kts
22-Sep-18 13:55 35.093883 -120.580320 90 3866ft 91kts
22-Sep-18 13:56 35.089713 -120.549246 101 4771ft 94kts
22-Sep-18 13:57 35.087537 -120.517041 93 5617ft 97kts
22-Sep-18 13:58 35.084583 -120.483949 99 6423ft 99kts
22-Sep-18 13:59 35.093133 -120.454551 41 7186ft 99kts
22-Sep-18 14:00 35.113638 -120.430468 39 7462ft 107kts
22-Sep-18 14:01 35.134848 -120.406212 38 7287ft 109kts
22-Sep-18 14:02 35.155287 -120.381017 40 6498ft 101kts
22-Sep-18 14:03 35.177494 -120.366100 345 5684ft 92kts
22-Sep-18 14:04 35.184739 -120.388913 242 4887ft 88kts
22-Sep-18 14:05 35.174707 -120.413126 309 4057ft 93kts
22-Sep-18 14:06 35.176463 -120.401897 206 3347ft 98kts
22-Sep-18 14:07 35.167727 -120.432605 260 3673ft 111kts
22-Sep-18 14:08 35.159730 -120.470825 252 3810ft 116kts
22-Sep-18 14:09 35.142861 -120.503173 236 3470ft 131kts
22-Sep-18 14:10 35.125033 -120.537446 235 2828ft 114kts
22-Sep-18 14:11 35.110053 -120.568791 247 2330ft 98kts
22-Sep-18 14:12 35.100202 -120.598901 233 1804ft 95kts
22-Sep-18 14:13 35.084736 -120.624149 222 1321ft 96kts
22-Sep-18 14:14 35.084150 -120.647225 3 1078ft 99kts
22-Sep-18 14:15 35.092257 -120.620350 110 947ft 91kts
22-Sep-18 14:16 35.097107 -120.605849 276 401ft 62kts
22-Sep-18 14:17 35.101902 -120.622991 306 18ft 29kts
22-Sep-18 14:18 35.102888 -120.623409 166 18ft 5kts
22-Sep-18 14:19 35.102791 -120.623437 212 18ft 0kts
22-Sep-18 14:20 35.102791 -120.623437 212 18ft 0kts
22-Sep-18 14:21 35.102791 -120.623437 212 18ft 0kts
22-Sep-18 14:22 35.102791 -120.623437 212 18ft 0kts
22-Sep-18 14:23 35.102791 -120.623437 212 18ft 0kts
22-Sep-18 14:24 34.942855 -119.690286 204 2207ft 0kts
22-Sep-18 14:25 34.942855 -119.690286 204 2207ft 0kts
22-Sep-18 14:26 34.942855 -119.690286 204 2207ft 0kts

Navigation Log

Ident Type
Flight plan parsing failed, navigation log unavailable